Time;durP1;ratioP1;P1;durP2;ratioP2;P2;SDS_P1;SDS_P2;PMS_P1;PMS_P2;Temp;Humidity;BMP_temperature;BMP_pressure;BME280_temperature;BME280_humidity;BME280_pressure;Samples;Min_cycle;Max_cycle;Signal;HPM_P1;HPM_P2
2021/06/10 00:02:09;;;;;;;7.57;2.20;;;;;;;19.40;58.18;101765.38;5052343;28;20055;-63
2021/06/10 00:04:35;;;;;;;5.47;2.20;;;;;;;19.36;58.39;101772.56;5057382;28;20422;-64
2021/06/10 00:07:02;;;;;;;4.68;2.30;;;;;;;19.36;58.31;101777.84;5052838;28;20052;-64
2021/06/10 00:09:29;;;;;;;6.15;2.25;;;;;;;19.33;58.47;101769.16;5052535;28;20045;-65
2021/06/10 00:11:55;;;;;;;4.95;1.95;;;;;;;19.32;58.44;101772.72;5051154;28;20053;-64
2021/06/10 00:14:21;;;;;;;5.07;2.00;;;;;;;19.28;58.50;101777.25;5053175;28;20055;-64
2021/06/10 00:16:47;;;;;;;4.18;2.30;;;;;;;19.23;58.83;101771.31;5060939;28;20058;-64
2021/06/10 00:19:13;;;;;;;8.30;2.40;;;;;;;19.21;59.01;101779.31;5065302;28;20044;-62
2021/06/10 00:21:39;;;;;;;6.50;2.40;;;;;;;19.16;58.98;101775.97;5061135;28;20425;-64
2021/06/10 00:24:06;;;;;;;7.07;2.08;;;;;;;19.11;59.27;101775.31;5050787;28;20417;-64
2021/06/10 00:26:34;;;;;;;3.35;1.85;;;;;;;19.08;59.60;101778.06;5052245;28;20737;-65
2021/06/10 00:29:00;;;;;;;4.63;2.25;;;;;;;19.08;60.08;101772.78;5059711;28;20052;-65
2021/06/10 00:31:26;;;;;;;4.72;2.33;;;;;;;19.05;60.13;101768.50;5054680;28;20758;-67
2021/06/10 00:33:52;;;;;;;3.35;2.00;;;;;;;19.03;60.27;101772.09;5055551;28;20048;-65
2021/06/10 00:36:18;;;;;;;4.43;2.08;;;;;;;18.99;60.47;101770.50;5058335;28;20248;-65
2021/06/10 00:38:46;;;;;;;4.43;2.08;;;;;;;18.96;60.36;101771.47;5058392;28;20049;-61
2021/06/10 00:41:12;;;;;;;6.72;2.47;;;;;;;18.95;60.23;101775.03;5054705;28;20173;-66
2021/06/10 00:43:39;;;;;;;6.72;2.75;;;;;;;18.91;60.73;101769.00;5054556;28;20800;-65
2021/06/10 00:46:06;;;;;;;6.75;2.55;;;;;;;18.87;60.41;101770.00;5061182;28;20053;-64
2021/06/10 00:48:34;;;;;;;5.00;2.20;;;;;;;18.80;61.17;101771.16;5065365;28;20106;-65
2021/06/10 00:51:00;;;;;;;6.80;2.40;;;;;;;18.77;61.36;101774.75;5058875;28;20053;-65
2021/06/10 00:53:26;;;;;;;4.40;2.30;;;;;;;18.73;61.77;101759.97;5058987;28;20052;-63
2021/06/10 00:55:56;;;;;;;4.32;2.38;;;;;;;18.70;61.77;101772.41;5052497;28;20056;-66
2021/06/10 00:58:23;;;;;;;4.35;2.42;;;;;;;18.70;61.69;101768.00;5060289;28;20100;-66
2021/06/10 01:00:50;;;;;;;5.47;2.60;;;;;;;18.67;61.65;101770.72;5061783;28;20052;-63
2021/06/10 01:03:17;;;;;;;6.20;2.60;;;;;;;18.68;61.92;101776.88;5052633;28;20053;-66
2021/06/10 01:05:43;;;;;;;5.50;2.70;;;;;;;18.69;62.01;101770.69;5052491;28;20049;-64
2021/06/10 01:08:16;;;;;;;4.63;2.60;;;;;;;18.70;61.65;101769.78;5054879;28;20080;-65
2021/06/10 01:10:54;;;;;;;5.05;2.58;;;;;;;18.72;61.73;101765.28;5061148;28;20056;-66
2021/06/10 01:13:44;;;;;;;4.30;2.40;;;;;;;18.67;61.76;101759.34;5056103;28;20056;-65
2021/06/10 01:16:15;;;;;;;6.13;3.13;;;;;;;18.61;62.07;101755.16;5055705;28;20049;-65
2021/06/10 01:18:43;;;;;;;7.38;2.85;;;;;;;18.61;62.44;101756.03;5064563;28;20052;-65
2021/06/10 01:21:09;;;;;;;5.70;3.30;;;;;;;18.62;62.49;101755.09;5055129;28;20041;-65
2021/06/10 01:23:52;;;;;;;7.78;2.80;;;;;;;18.62;62.72;101760.38;5056534;28;20045;-64
2021/06/10 01:26:26;;;;;;;4.75;2.45;;;;;;;18.63;62.64;101762.09;5063222;28;20072;-65
2021/06/10 01:28:55;;;;;;;5.07;2.70;;;;;;;18.64;62.64;101760.31;5058277;28;20157;-64
2021/06/10 01:31:22;;;;;;;7.10;2.63;;;;;;;18.67;62.63;101764.63;5064918;28;20520;-65
2021/06/10 01:33:50;;;;;;;4.35;2.63;;;;;;;18.60;62.67;101754.31;5055458;28;20053;-62
2021/06/10 01:36:19;;;;;;;5.28;2.75;;;;;;;18.56;62.68;101757.97;5062785;28;20041;-64
2021/06/10 01:38:48;;;;;;;6.30;3.10;;;;;;;18.41;63.27;101756.75;5055956;28;20049;-64
2021/06/10 01:41:16;;;;;;;6.22;2.60;;;;;;;18.31;63.40;101752.72;5058666;28;20052;-66
2021/06/10 01:43:43;;;;;;;9.77;2.72;;;;;;;18.29;63.92;101755.41;5052723;28;20044;-66
2021/06/10 01:46:11;;;;;;;5.57;2.70;;;;;;;18.27;64.17;101759.88;5057534;28;20052;-63
2021/06/10 01:48:39;;;;;;;5.80;3.00;;;;;;;18.26;64.43;101766.06;5053682;28;20075;-65
2021/06/10 01:51:06;;;;;;;6.88;2.83;;;;;;;18.22;64.24;101759.16;5054353;28;21024;-65
2021/06/10 01:53:33;;;;;;;4.45;3.00;;;;;;;18.14;64.52;101755.94;5057661;28;20052;-63
2021/06/10 01:56:00;;;;;;;7.95;2.92;;;;;;;18.17;64.68;101764.59;5054814;28;20119;-65
2021/06/10 01:58:28;;;;;;;5.63;2.95;;;;;;;18.15;64.62;101757.66;5059356;28;20193;-63
2021/06/10 02:00:55;;;;;;;9.40;2.88;;;;;;;18.14;64.45;101758.56;5056036;28;20052;-61
2021/06/10 02:03:24;;;;;;;6.82;3.60;;;;;;;18.09;64.47;101753.47;5059523;28;23716;-62
2021/06/10 02:05:51;;;;;;;6.72;3.35;;;;;;;18.07;64.46;101754.44;5048304;28;20061;-67
2021/06/10 02:08:19;;;;;;;5.40;3.42;;;;;;;18.04;64.45;101755.41;5062049;28;20060;-65
2021/06/10 02:10:48;;;;;;;11.02;4.25;;;;;;;18.07;64.58;101749.19;5064242;28;20422;-65
2021/06/10 02:13:16;;;;;;;5.95;3.00;;;;;;;18.01;64.69;101755.50;5058537;28;20101;-65
2021/06/10 02:15:45;;;;;;;8.05;3.35;;;;;;;17.97;64.38;101749.50;5054999;28;20057;-65
2021/06/10 02:18:12;;;;;;;5.38;3.17;;;;;;;17.92;64.29;101740.84;5048867;28;20165;-65
2021/06/10 02:20:39;;;;;;;4.75;3.28;;;;;;;17.84;64.39;101748.16;5047246;28;20426;-65
2021/06/10 02:23:06;;;;;;;8.20;3.15;;;;;;;17.83;64.50;101735.91;5056172;28;20172;-65
2021/06/10 02:25:32;;;;;;;5.47;2.75;;;;;;;17.84;64.73;101749.03;5053480;28;20060;-65
2021/06/10 02:27:58;;;;;;;6.40;3.10;;;;;;;17.83;65.02;101747.31;5052218;28;20601;-65
2021/06/10 02:30:24;;;;;;;5.22;3.10;;;;;;;17.79;65.01;101744.81;5051347;28;20059;-64
2021/06/10 02:32:50;;;;;;;5.68;3.47;;;;;;;17.76;64.45;101730.00;5058422;28;20044;-65
2021/06/10 02:35:17;;;;;;;7.22;3.53;;;;;;;17.76;64.15;101735.28;5052932;28;20491;-65
2021/06/10 02:37:47;;;;;;;5.18;3.05;;;;;;;17.67;64.16;101743.44;5052465;28;20064;-65
2021/06/10 02:40:15;;;;;;;8.30;3.60;;;;;;;17.65;64.60;101746.13;5059298;28;20048;-65
2021/06/10 02:42:43;;;;;;;6.25;3.35;;;;;;;17.59;64.96;101748.97;5066847;28;20052;-63
2021/06/10 02:45:10;;;;;;;8.25;3.80;;;;;;;17.50;65.32;101747.50;5048932;28;20114;-66
2021/06/10 02:47:38;;;;;;;5.60;3.03;;;;;;;17.47;65.86;101752.00;5050291;28;20109;-65
2021/06/10 02:50:05;;;;;;;8.75;3.47;;;;;;;17.50;65.88;101749.28;5052461;28;20053;-64
2021/06/10 02:52:34;;;;;;;5.35;3.83;;;;;;;17.42;66.26;101748.66;5053957;28;20106;-65
2021/06/10 02:55:02;;;;;;;7.38;3.50;;;;;;;17.32;66.75;101751.56;5065259;28;20056;-65
2021/06/10 02:57:29;;;;;;;5.25;3.35;;;;;;;17.32;67.00;101742.81;5063665;28;20085;-65
2021/06/10 02:59:56;;;;;;;6.50;3.63;;;;;;;17.29;66.75;101743.78;5063305;28;20391;-64
2021/06/10 03:02:21;;;;;;;7.65;3.30;;;;;;;17.28;66.91;101742.06;5051763;28;20052;-65
2021/06/10 03:04:48;;;;;;;5.80;3.05;;;;;;;17.20;66.89;101744.06;5054836;28;20673;-66
2021/06/10 03:07:16;;;;;;;5.95;3.33;;;;;;;17.15;67.20;101744.22;5054842;28;20060;-63
2021/06/10 03:09:44;;;;;;;8.20;4.10;;;;;;;17.16;67.19;101742.44;5058610;28;20513;-64
2021/06/10 03:12:13;;;;;;;6.25;3.90;;;;;;;17.13;67.17;101742.50;5051556;28;20052;-64
2021/06/10 03:14:42;;;;;;;7.70;3.40;;;;;;;17.11;67.37;101736.47;5061582;28;20140;-65
2021/06/10 03:17:09;;;;;;;7.43;4.18;;;;;;;17.08;67.50;101735.66;5050648;28;20060;-65
2021/06/10 03:19:35;;;;;;;8.15;3.97;;;;;;;17.05;67.50;101732.25;5049781;28;20063;-62
2021/06/10 03:22:02;;;;;;;6.68;3.75;;;;;;;17.05;67.37;101735.75;5049822;28;20056;-64
2021/06/10 03:24:29;;;;;;;7.15;3.92;;;;;;;17.04;67.30;101736.63;5054586;28;20420;-64
2021/06/10 03:26:56;;;;;;;8.90;4.40;;;;;;;16.99;67.46;101730.69;5055165;28;20061;-65
2021/06/10 03:29:23;;;;;;;7.18;4.35;;;;;;;17.01;67.63;101735.88;5056655;28;20052;-64
2021/06/10 03:31:50;;;;;;;6.90;4.05;;;;;;;17.00;67.65;101729.78;5052216;28;20048;-64
2021/06/10 03:34:17;;;;;;;9.85;3.83;;;;;;;17.02;67.42;101733.19;5050600;28;20049;-61
2021/06/10 03:36:44;;;;;;;8.07;4.20;;;;;;;17.02;67.15;101727.94;5066611;28;20795;-64
2021/06/10 03:39:11;;;;;;;10.68;4.32;;;;;;;17.02;67.31;101733.19;5064261;28;20048;-64
2021/06/10 03:41:39;;;;;;;13.35;3.95;;;;;;;17.02;67.63;101732.34;5052623;28;20048;-62
2021/06/10 03:44:07;;;;;;;6.45;3.75;;;;;;;17.07;67.46;101725.16;5050581;28;20094;-65
2021/06/10 03:46:35;;;;;;;6.88;4.13;;;;;;;17.14;66.80;101718.84;5060673;28;20048;-66
2021/06/10 03:49:03;;;;;;;6.70;4.20;;;;;;;17.23;66.80;101728.19;5056864;28;20059;-64
2021/06/10 03:51:29;;;;;;;8.23;4.20;;;;;;;17.33;66.28;101726.97;5051810;28;20694;-63
2021/06/10 03:53:55;;;;;;;8.40;4.55;;;;;;;17.43;65.62;101727.56;5048499;28;20053;-63
2021/06/10 03:56:21;;;;;;;7.05;4.55;;;;;;;17.55;65.20;101732.44;5053147;28;20481;-61
2021/06/10 03:58:47;;;;;;;7.22;4.63;;;;;;;17.69;64.47;101733.72;5053166;28;20056;-63
2021/06/10 04:01:13;;;;;;;8.95;5.22;;;;;;;17.82;63.34;101724.53;5059007;28;20517;-65
2021/06/10 04:03:40;;;;;;;8.00;5.25;;;;;;;17.94;62.68;101727.66;5064317;28;20044;-63
2021/06/10 04:06:06;;;;;;;9.18;5.13;;;;;;;18.03;62.02;101732.63;5067456;28;20055;-65
2021/06/10 04:08:32;;;;;;;7.88;5.43;;;;;;;18.08;61.90;101735.94;5053284;28;20048;-64
2021/06/10 04:10:58;;;;;;;11.13;5.40;;;;;;;18.18;61.30;101736.50;5046169;28;24134;-64
2021/06/10 04:13:24;;;;;;;16.75;6.00;;;;;;;18.29;60.67;101736.09;5063235;28;20071;-65
2021/06/10 04:15:51;;;;;;;9.48;4.85;;;;;;;18.43;60.14;101738.25;5057302;28;20052;-66
2021/06/10 04:18:18;;;;;;;9.55;4.78;;;;;;;18.59;59.63;101733.28;5060625;28;20052;-63
2021/06/10 04:20:46;;;;;;;9.15;4.60;;;;;;;18.75;59.15;101728.28;5049929;28;20056;-65
2021/06/10 04:23:12;;;;;;;8.93;5.35;;;;;;;18.85;58.66;101734.09;5058049;28;20665;-64
2021/06/10 04:25:38;;;;;;;8.05;4.75;;;;;;;18.93;58.30;101730.25;5047788;28;20134;-65
2021/06/10 04:28:04;;;;;;;6.75;4.55;;;;;;;19.09;57.77;101724.41;5071200;28;20076;-64
2021/06/10 04:30:30;;;;;;;6.80;4.60;;;;;;;19.24;57.68;101725.56;5064261;28;20060;-64
2021/06/10 04:32:56;;;;;;;13.70;5.05;;;;;;;19.39;57.44;101727.56;5065422;28;20048;-64
2021/06/10 04:35:22;;;;;;;6.10;4.35;;;;;;;19.49;57.31;101738.63;5053339;28;20063;-63
2021/06/10 04:37:49;;;;;;;6.68;4.30;;;;;;;19.63;56.94;101737.19;5064330;28;20045;-63
2021/06/10 04:40:16;;;;;;;9.07;4.50;;;;;;;19.80;56.75;101734.72;5067222;28;20059;-61
2021/06/10 04:42:42;;;;;;;13.80;4.35;;;;;;;19.96;56.04;101727.03;5069664;28;20149;-65
2021/06/10 04:45:10;;;;;;;11.13;4.47;;;;;;;20.16;55.69;101735.88;5072338;28;20055;-66
2021/06/10 04:47:36;;;;;;;7.18;4.03;;;;;;;20.36;54.78;101732.34;5066810;28;20041;-66
2021/06/10 04:50:03;;;;;;;6.05;3.90;;;;;;;20.50;54.30;101727.31;5059737;28;20055;-64
2021/06/10 04:52:29;;;;;;;6.72;4.28;;;;;;;20.65;53.78;101730.16;5076649;28;20048;-64
2021/06/10 04:54:56;;;;;;;10.07;5.05;;;;;;;20.76;53.31;101727.91;5068822;28;20619;-65
2021/06/10 04:57:22;;;;;;;7.35;4.45;;;;;;;20.90;52.75;101737.00;5056717;28;20249;-64
2021/06/10 04:59:48;;;;;;;7.45;4.22;;;;;;;21.06;51.68;101735.34;5063604;28;20053;-65
2021/06/10 05:02:14;;;;;;;9.07;4.60;;;;;;;21.21;51.49;101735.53;5066500;28;20068;-66
2021/06/10 05:04:40;;;;;;;10.05;4.35;;;;;;;21.37;51.15;101738.28;5049954;28;20053;-62
2021/06/10 05:07:06;;;;;;;10.55;4.65;;;;;;;21.66;49.36;101734.22;5048147;28;20048;-65
2021/06/10 05:09:33;;;;;;;14.48;4.50;;;;;;;21.90;49.18;101725.97;5054424;28;20056;-63
2021/06/10 05:12:00;;;;;;;8.65;4.80;;;;;;;22.04;48.46;101733.22;5064627;28;20052;-63
2021/06/10 05:14:26;;;;;;;13.43;4.78;;;;;;;22.20;47.91;101734.13;5061060;28;20048;-65
2021/06/10 05:16:52;;;;;;;11.13;5.07;;;;;;;22.35;47.46;101729.78;5054477;28;20714;-65
2021/06/10 05:19:18;;;;;;;9.55;5.50;;;;;;;22.41;47.43;101735.75;5060041;28;20820;-64
2021/06/10 05:21:44;;;;;;;8.25;5.00;;;;;;;22.58;47.24;101732.16;5063562;28;20056;-65
2021/06/10 05:24:11;;;;;;;9.43;5.25;;;;;;;22.61;47.30;101732.84;5055578;28;20053;-65
2021/06/10 05:26:37;;;;;;;7.05;4.63;;;;;;;22.76;45.99;101744.41;5068533;28;20048;-67
2021/06/10 05:29:05;;;;;;;9.63;5.15;;;;;;;23.01;45.15;101743.06;5062467;28;20067;-66
2021/06/10 05:31:31;;;;;;;9.00;4.95;;;;;;;23.02;44.86;101736.84;5063220;28;20048;-66
2021/06/10 05:33:57;;;;;;;7.78;4.57;;;;;;;23.20;44.93;101734.97;5051151;28;20403;-64
2021/06/10 05:36:23;;;;;;;6.82;4.45;;;;;;;23.33;44.58;101729.81;5066078;28;20234;-64
2021/06/10 05:38:49;;;;;;;8.88;5.05;;;;;;;23.52;44.65;101732.25;5064175;28;20497;-66
2021/06/10 05:41:15;;;;;;;8.95;4.45;;;;;;;23.53;44.44;101736.59;5066917;28;20917;-63
2021/06/10 05:43:41;;;;;;;11.80;4.93;;;;;;;23.66;44.05;101730.59;5070275;28;20060;-65
2021/06/10 05:46:08;;;;;;;6.97;4.50;;;;;;;23.83;43.67;101724.28;5064404;28;20052;-66
2021/06/10 05:48:34;;;;;;;9.07;4.97;;;;;;;23.88;43.83;101736.34;5056428;28;20045;-65
2021/06/10 05:51:00;;;;;;;10.02;4.65;;;;;;;24.14;42.85;101728.63;5055123;28;20053;-64
2021/06/10 05:53:26;;;;;;;6.03;4.03;;;;;;;24.42;42.46;101729.56;5060299;28;20058;-64
2021/06/10 05:55:53;;;;;;;10.77;5.10;;;;;;;24.63;40.37;101737.16;5062462;28;20086;-64
2021/06/10 05:58:19;;;;;;;9.63;5.50;;;;;;;24.66;40.46;101736.97;5067756;28;21410;-64
2021/06/10 06:00:45;;;;;;;15.65;5.53;;;;;;;24.79;40.92;101740.59;5057206;28;20101;-66
2021/06/10 06:03:12;;;;;;;8.30;5.15;;;;;;;24.94;41.18;101740.56;5066107;28;20448;-63
2021/06/10 06:05:39;;;;;;;9.90;4.55;;;;;;;25.03;40.98;101742.63;5066498;28;20087;-63
2021/06/10 06:08:06;;;;;;;8.23;4.25;;;;;;;25.16;40.51;101740.00;5063533;28;20426;-64
2021/06/10 06:10:32;;;;;;;7.50;4.55;;;;;;;25.40;39.76;101745.59;5066766;28;20052;-64
2021/06/10 06:13:01;;;;;;;6.50;4.50;;;;;;;25.54;39.87;101749.13;5064474;28;20080;-63
2021/06/10 06:15:27;;;;;;;7.22;4.15;;;;;;;25.71;39.96;101746.16;5063855;28;20072;-64
2021/06/10 06:17:53;;;;;;;9.00;4.78;;;;;;;25.75;38.49;101749.50;5066079;28;20098;-63
2021/06/10 06:20:22;;;;;;;7.00;4.15;;;;;;;25.90;38.21;101750.28;5064179;28;20059;-65
2021/06/10 06:22:48;;;;;;;10.02;4.30;;;;;;;26.00;36.52;101747.81;5059962;28;20497;-64
2021/06/10 06:25:16;;;;;;;7.07;4.47;;;;;;;26.01;37.58;101753.03;5049512;28;20048;-64
2021/06/10 06:27:42;;;;;;;11.48;5.00;;;;;;;26.12;37.55;101754.13;5050032;28;20044;-65
2021/06/10 06:30:10;;;;;;;7.20;4.72;;;;;;;26.14;38.12;101752.22;5049874;28;20056;-62
2021/06/10 06:32:36;;;;;;;10.05;3.72;;;;;;;26.19;37.59;101753.59;5068747;28;20083;-63
2021/06/10 06:35:02;;;;;;;8.52;3.47;;;;;;;26.27;37.98;101752.22;5069339;28;20063;-61
2021/06/10 06:37:30;;;;;;;6.82;3.92;;;;;;;26.44;37.58;101761.69;5058967;28;20674;-63
2021/06/10 06:39:56;;;;;;;6.05;3.00;;;;;;;26.51;37.40;101763.84;5051032;28;20063;-64
2021/06/10 06:42:22;;;;;;;7.28;3.53;;;;;;;26.68;38.21;101762.63;5063531;28;20674;-64
2021/06/10 06:44:48;;;;;;;6.43;3.60;;;;;;;26.88;37.10;101762.19;5056532;28;20040;-66
2021/06/10 06:47:14;;;;;;;12.18;3.50;;;;;;;26.95;37.26;101771.47;5063060;28;20048;-65
2021/06/10 06:49:40;;;;;;;5.65;2.80;;;;;;;27.05;36.87;101768.97;5050667;28;20209;-63
2021/06/10 06:52:06;;;;;;;8.10;3.05;;;;;;;27.08;36.79;101768.75;5065138;28;20059;-63
2021/06/10 06:54:34;;;;;;;7.18;2.58;;;;;;;27.07;37.27;101767.03;5054903;28;20115;-66
2021/06/10 06:57:00;;;;;;;5.22;3.03;;;;;;;26.95;36.41;101766.13;5050717;28;20052;-66
2021/06/10 06:59:26;;;;;;;6.68;2.90;;;;;;;26.81;37.14;101772.44;5055250;28;20962;-64
2021/06/10 07:01:52;;;;;;;7.20;3.08;;;;;;;26.91;35.63;101767.31;5057597;28;20048;-64
2021/06/10 07:04:18;;;;;;;5.78;3.10;;;;;;;26.91;34.81;101772.66;5062248;28;20070;-63
2021/06/10 07:06:44;;;;;;;7.93;3.00;;;;;;;26.92;35.24;101772.53;5057624;28;20105;-64
2021/06/10 07:09:10;;;;;;;7.95;3.03;;;;;;;26.78;36.46;101780.69;5056396;28;20469;-65
2021/06/10 07:11:37;;;;;;;7.70;2.08;;;;;;;26.60;35.92;101780.97;5062432;28;20564;-64
2021/06/10 07:14:04;;;;;;;8.57;2.50;;;;;;;26.58;36.14;101776.72;5071521;28;20059;-63
2021/06/10 07:16:30;;;;;;;4.72;2.67;;;;;;;26.39;36.84;101780.69;5074206;28;20052;-59
2021/06/10 07:18:56;;;;;;;5.75;2.20;;;;;;;26.27;37.29;101771.75;5062796;28;20405;-62
2021/06/10 07:21:22;;;;;;;5.38;2.97;;;;;;;26.32;37.23;101777.59;5056983;28;20052;-63
2021/06/10 07:23:48;;;;;;;5.53;2.97;;;;;;;26.29;36.64;101776.97;5068297;28;20052;-62
2021/06/10 07:26:14;;;;;;;4.78;2.05;;;;;;;26.21;37.29;101774.81;5071405;28;20098;-63
2021/06/10 07:28:41;;;;;;;5.05;2.70;;;;;;;26.18;38.15;101775.91;5056225;28;20049;-63
2021/06/10 07:31:07;;;;;;;8.45;2.63;;;;;;;26.22;37.57;101780.06;5065281;28;21375;-65
2021/06/10 07:33:33;;;;;;;5.72;2.60;;;;;;;26.22;38.41;101771.19;5077758;28;20052;-65
2021/06/10 07:36:00;;;;;;;5.88;2.50;;;;;;;26.38;38.63;101768.31;5069912;28;20049;-66
2021/06/10 07:38:26;;;;;;;8.00;2.92;;;;;;;26.39;37.71;101780.69;5063369;28;20040;-60
2021/06/10 07:40:52;;;;;;;6.55;3.38;;;;;;;26.36;38.53;101778.25;5073352;28;20048;-63
2021/06/10 07:43:18;;;;;;;6.72;2.30;;;;;;;26.45;38.84;101784.75;5067171;28;20044;-64
2021/06/10 07:45:45;;;;;;;5.25;2.30;;;;;;;26.38;38.45;101784.31;5065104;28;20489;-64
2021/06/10 07:48:11;;;;;;;4.93;2.65;;;;;;;26.36;38.32;101784.44;5063012;28;20055;-64
2021/06/10 07:50:37;;;;;;;7.05;3.03;;;;;;;26.40;37.28;101785.06;5064585;28;20048;-63
2021/06/10 07:53:04;;;;;;;6.53;3.00;;;;;;;26.31;38.10;101785.72;5063764;28;20513;-63
2021/06/10 07:55:30;;;;;;;5.43;2.55;;;;;;;26.24;39.19;101787.97;5074467;28;20442;-64
2021/06/10 07:58:00;;;;;;;3.88;2.20;;;;;;;26.22;37.65;101787.19;5073771;28;20059;-64
2021/06/10 08:00:26;;;;;;;7.22;3.05;;;;;;;26.11;38.94;101784.41;5054680;28;20053;-63
2021/06/10 08:02:58;;;;;;;4.68;2.10;;;;;;;26.04;39.14;101789.31;5050257;28;20060;-66
2021/06/10 08:05:24;;;;;;;5.70;2.30;;;;;;;26.14;39.02;101786.88;5047060;28;20057;-65
2021/06/10 08:07:50;;;;;;;7.32;2.78;;;;;;;26.13;39.52;101795.84;5050979;28;20052;-64
2021/06/10 08:10:16;;;;;;;6.53;3.63;;;;;;;26.10;38.47;101790.75;5056562;28;20052;-63
2021/06/10 08:12:42;;;;;;;4.22;2.05;;;;;;;26.01;39.49;101787.69;5053673;28;20048;-61
2021/06/10 08:15:08;;;;;;;5.30;2.80;;;;;;;25.91;39.48;101783.94;5055815;28;21263;-66
2021/06/10 08:17:35;;;;;;;7.63;2.92;;;;;;;25.88;40.71;101782.34;5058198;28;20044;-65
2021/06/10 08:20:04;;;;;;;5.28;2.38;;;;;;;25.91;41.22;101790.13;5050496;28;20079;-63
2021/06/10 08:22:30;;;;;;;5.10;2.00;;;;;;;26.02;40.84;101791.22;5052819;28;20048;-64
2021/06/10 08:24:56;;;;;;;4.35;1.98;;;;;;;26.16;40.34;101785.81;5071394;28;20067;-66
2021/06/10 08:27:22;;;;;;;5.55;2.20;;;;;;;26.23;40.42;101783.56;5059324;28;20071;-66
2021/06/10 08:29:48;;;;;;;4.50;2.42;;;;;;;26.20;40.41;101790.00;5058095;28;20407;-66
2021/06/10 08:32:14;;;;;;;10.80;3.28;;;;;;;26.20;39.68;101787.31;5048278;28;20055;-66
2021/06/10 08:34:40;;;;;;;6.28;2.20;;;;;;;26.19;40.06;101779.44;5050200;28;20143;-67
2021/06/10 08:37:07;;;;;;;4.47;2.22;;;;;;;26.30;40.20;101782.22;5058344;28;20060;-67
2021/06/10 08:39:33;;;;;;;4.28;2.20;;;;;;;26.45;39.09;101782.09;5067864;28;20049;-68
2021/06/10 08:41:59;;;;;;;5.50;2.50;;;;;;;26.46;39.07;101789.13;5058378;28;20055;-65
2021/06/10 08:44:25;;;;;;;5.57;2.50;;;;;;;26.37;38.78;101786.16;5062656;28;20108;-66
2021/06/10 08:46:53;;;;;;;5.47;2.03;;;;;;;26.36;39.03;101788.91;5069002;28;20048;-62
2021/06/10 08:49:20;;;;;;;6.47;2.58;;;;;;;26.32;38.79;101795.44;5069577;28;20045;-65
2021/06/10 08:51:46;;;;;;;9.32;2.97;;;;;;;26.28;38.99;101792.13;5065405;28;20044;-64
2021/06/10 08:54:13;;;;;;;6.68;2.40;;;;;;;26.24;39.16;101795.97;5068685;28;20918;-63
2021/06/10 08:56:41;;;;;;;6.32;2.30;;;;;;;26.20;39.31;101789.16;5055502;28;20065;-64
2021/06/10 08:59:09;;;;;;;5.15;1.98;;;;;;;26.25;39.83;101792.34;5072116;28;20104;-63
2021/06/10 09:01:35;;;;;;;8.10;2.30;;;;;;;26.44;39.05;101791.03;5063926;28;20122;-62
2021/06/10 09:04:01;;;;;;;6.15;2.25;;;;;;;26.52;38.61;101794.91;5070140;28;20131;-62
2021/06/10 09:06:27;;;;;;;6.88;2.67;;;;;;;26.50;39.59;101796.81;5066921;28;20588;-63
2021/06/10 09:08:56;;;;;;;7.32;2.70;;;;;;;26.60;39.36;101802.34;5068579;28;20106;-65
2021/06/10 09:11:25;;;;;;;6.68;2.63;;;;;;;26.66;39.46;101801.91;5067107;28;20049;-66
2021/06/10 09:13:55;;;;;;;4.80;2.63;;;;;;;26.82;39.97;101796.38;5058715;28;20128;-65
2021/06/10 09:16:26;;;;;;;5.90;2.75;;;;;;;26.95;38.13;101791.00;5057038;28;20047;-64
2021/06/10 09:19:01;;;;;;;5.18;2.55;;;;;;;26.96;37.99;101798.03;5060892;28;20049;-63
2021/06/10 09:21:30;;;;;;;6.90;2.67;;;;;;;26.82;37.96;101806.19;5056124;28;20479;-66
2021/06/10 09:23:56;;;;;;;9.18;3.40;;;;;;;26.85;38.26;101800.63;5061635;28;20052;-65
2021/06/10 09:26:32;;;;;;;7.13;3.38;;;;;;;26.81;38.33;101804.47;5072430;28;20045;-64
2021/06/10 09:29:03;;;;;;;5.50;2.60;;;;;;;26.83;37.84;101798.09;5066826;28;20040;-64
2021/06/10 09:31:32;;;;;;;5.78;3.40;;;;;;;26.87;37.93;101798.72;5068568;28;20055;-63
2021/06/10 09:33:58;;;;;;;7.28;3.50;;;;;;;26.77;38.38;101800.31;5077210;28;20131;-65
2021/06/10 09:36:24;;;;;;;5.63;2.88;;;;;;;26.64;38.71;101803.00;5075360;28;20178;-65
2021/06/10 09:39:08;;;;;;;5.97;2.95;;;;;;;26.63;38.72;101790.63;5057004;28;20128;-65
2021/06/10 09:42:04;;;;;;;7.40;2.92;;;;;;;26.64;39.57;101792.31;5050571;28;20395;-61
2021/06/10 09:44:38;;;;;;;7.65;2.95;;;;;;;26.75;39.87;101794.22;5073437;28;20098;-64
2021/06/10 09:47:04;;;;;;;10.30;3.47;;;;;;;26.84;39.48;101799.78;5064731;28;20068;-63
2021/06/10 09:49:30;;;;;;;7.78;3.05;;;;;;;26.98;39.37;101797.94;5075866;28;20490;-67
2021/06/10 09:51:57;;;;;;;8.15;2.85;;;;;;;26.99;38.73;101788.97;5067496;28;20049;-63
2021/06/10 09:54:39;;;;;;;6.03;3.55;;;;;;;26.98;37.50;101798.78;5068473;28;20063;-62
2021/06/10 09:57:06;;;;;;;6.32;3.20;;;;;;;26.82;37.86;101790.16;5055101;28;20083;-66
2021/06/10 09:59:53;;;;;;;7.68;3.20;;;;;;;26.87;38.54;101796.03;5061146;28;22164;-67
2021/06/10 10:02:24;;;;;;;6.38;3.47;;;;;;;26.84;39.29;101791.78;5052234;28;20049;-67
2021/06/10 10:04:59;;;;;;;7.07;3.90;;;;;;;26.92;38.01;101793.03;5059392;28;20045;-66
2021/06/10 10:07:26;;;;;;;7.75;3.53;;;;;;;26.83;39.16;101799.88;5070412;28;20748;-65
2021/06/10 10:09:55;;;;;;;6.40;3.15;;;;;;;26.86;39.26;101794.34;5059875;28;20045;-65
2021/06/10 10:12:24;;;;;;;10.00;3.67;;;;;;;27.08;38.48;101793.63;5055252;28;20057;-64
2021/06/10 10:14:50;;;;;;;7.10;3.35;;;;;;;27.00;38.41;101788.84;5052025;28;20052;-66
2021/06/10 10:17:16;;;;;;;7.00;4.07;;;;;;;26.96;37.57;101797.19;5057613;28;20052;-66
2021/06/10 10:19:43;;;;;;;11.02;3.53;;;;;;;26.81;38.89;101796.47;5067772;28;20052;-66
2021/06/10 10:22:12;;;;;;;7.90;3.75;;;;;;;26.90;38.84;101798.47;5059798;28;20044;-65
2021/06/10 10:24:38;;;;;;;6.85;3.88;;;;;;;26.97;38.22;101790.88;5062671;28;20055;-62
2021/06/10 10:27:05;;;;;;;7.03;3.65;;;;;;;26.98;39.13;101796.13;5062474;28;20044;-60
2021/06/10 10:29:33;;;;;;;10.25;4.20;;;;;;;27.04;39.18;101785.94;5078975;28;20094;-63
2021/06/10 10:31:59;;;;;;;7.50;3.03;;;;;;;27.12;39.07;101783.56;5062723;28;20052;-65
2021/06/10 10:34:28;;;;;;;8.32;3.53;;;;;;;27.27;38.51;101790.47;5062210;28;20686;-63
2021/06/10 10:36:54;;;;;;;8.48;3.30;;;;;;;27.40;38.57;101785.06;5067501;28;20110;-64
2021/06/10 10:39:29;;;;;;;6.65;3.42;;;;;;;27.44;37.34;101783.03;5076470;28;20052;-64
2021/06/10 10:41:56;;;;;;;4.75;2.85;;;;;;;27.19;38.58;101779.50;5071338;28;20063;-63
2021/06/10 10:44:25;;;;;;;9.02;3.42;;;;;;;27.21;37.72;101774.03;5070932;28;20106;-66
2021/06/10 10:47:08;;;;;;;6.38;3.40;;;;;;;27.03;39.13;101766.41;5073066;28;20606;-64
2021/06/10 10:49:41;;;;;;;7.20;3.38;;;;;;;27.06;38.01;101758.16;5072011;28;20696;-64
2021/06/10 10:52:27;;;;;;;9.15;2.80;;;;;;;27.03;39.51;101760.22;5064021;28;20422;-65
2021/06/10 10:54:54;;;;;;;7.47;3.65;;;;;;;27.26;39.63;101751.38;5057300;28;20052;-63
2021/06/10 10:57:39;;;;;;;7.65;2.72;;;;;;;27.43;38.10;101752.81;5061563;28;20052;-64
2021/06/10 11:00:08;;;;;;;6.68;3.33;;;;;;;27.68;38.50;101755.44;5059821;28;20600;-65
2021/06/10 11:02:39;;;;;;;7.97;2.85;;;;;;;27.97;38.19;101749.69;5060360;28;20059;-64
2021/06/10 11:05:09;;;;;;;5.97;2.60;;;;;;;28.28;36.23;101756.19;5070235;28;20048;-63
2021/06/10 11:07:53;;;;;;;5.80;2.60;;;;;;;28.44;37.11;101747.78;5067717;28;20040;-66
2021/06/10 11:10:34;;;;;;;;;;;;;;;28.59;35.69;101750.22;5053984;28;20056;-67
2021/06/10 11:13:13;;;;;;;4.93;2.60;;;;;;;28.76;35.42;101748.88;5042807;28;19943;-65
2021/06/10 11:15:50;;;;;;;5.70;2.20;;;;;;;28.85;34.85;101761.50;5044704;28;20071;-67
2021/06/10 11:18:59;;;;;;;6.88;2.60;;;;;;;28.72;34.50;101758.16;5063498;28;20044;-66
2021/06/10 11:21:50;;;;;;;5.97;2.78;;;;;;;28.20;34.88;101755.94;5059325;28;20048;-66
2021/06/10 11:24:18;;;;;;;4.45;2.60;;;;;;;27.80;35.17;101749.13;5056735;28;20502;-64
2021/06/10 11:26:50;;;;;;;8.30;2.60;;;;;;;27.50;33.66;101752.34;5059881;28;20060;-65
2021/06/10 11:29:17;;;;;;;5.53;1.95;;;;;;;27.26;34.10;101742.47;5052937;28;20055;-67